Lowville, NY (13367)

2:59 AM EDT on August 03, 2015 (GMT -0400)
O'Brien Road | | Change Station
CLOSE
Current Station
Personal Weather Station
Location: Lowville, NY
Elevation: 1473 ft
Nearby Weather Stations

Elev 1473 ft 43.83 °N, 75.62 °W | Updated 14 minutes ago

Partly Cloudy
Partly Cloudy
71.1 °F
Feels Like 74 °F
N
9.0
Wind Variable Wind from WSW
Gusts 21.0 mph

Today
High -- | Low -- °F
--% Chance of Precip.
Yesterday
High -- | Low -- °F
Precip. -- in
5:52 AM 8:23 PM
Waning Gibbous, 89% visible
Pressure 29.65 in
Visibility 10.0 miles
Clouds Mostly Cloudy 10000 ft
Heat Index 74 °F
Dew Point 61 °F
Humidity 70%
Rainfall 0.00 in
Snow Depth Not available.
UV 0 out of 12
Pollen 6.60 out of 12
Air Quality Not available.
Flu Activity Not available.
METAR KGTB 030558Z AUTO 20011G21KT 10SM BKN100 25/15 A2966 RMK AO2 SLP039 T02480154 10248 20212 55011

More Conditions Fewer Conditions

Pressure 29.65 in
Visibility 10.0 miles
Clouds Mostly Cloudy 10000 ft
Heat Index 74 °F
Dew Point 61 °F
Humidity 70%
Rainfall 0.00 in
Snow Depth Not available.
UV 0 out of 12
Pollen 6.60 out of 12
Air Quality Not available.
Flu Activity Not available.
METAR KGTB 030558Z AUTO 20011G21KT 10SM BKN100 25/15 A2966 RMK AO2 SLP039 T02480154 10248 20212 55011

More Conditions Fewer Conditions

10-Day Weather Forecast

×

Almanac

Astronomy

Aug. 03, 2015 Rise Set
Actual Time
Civil Twilight
Nautical Twilight
Astronomical Twilight
Moon
Length of Visible Light
Length of Day
Tomorrow will be .
, % of the Moon is Illuminated

Today's Extremes

State Highs State Lows

Community

WunderPhotos

Upload Photos

1,843,595 photos uploaded!

WunderBlogs® & News

Nearby

Air Quality

  Air Quality AQ Index Pollutant
Not available.

Snow Depth

Station Depth Elevation

Earthquake Activity

City Distance Mag. Time & Date
Minimum magnitude displayed is 2.5.

Coastal Water Temperatures

Place Temperature

Stations

Nearby Weather Stations

Station Location Temp. Windchill Dew Point Humidity Wind Precip. Elev Updated Type